Time;durP1;ratioP1;P1;durP2;ratioP2;P2;SDS_P1;SDS_P2;PMS_P1;PMS_P2;Temp;Humidity;BMP_temperature;BMP_pressure;BME280_temperature;BME280_humidity;BME280_pressure;Samples;Min_cycle;Max_cycle;Signal;HPM_P1;HPM_P2
2022/03/07 00:47:57;;;;;;;;;;;5.20;99.90;;;;;;5025605;28;19925;-88
2022/03/07 00:51:26;;;;;;;;;;;5.50;99.90;;;;;;5008665;28;19930;-85
2022/03/07 00:54:59;;;;;;;;;;;3.80;99.90;;;;;;4902217;28;19931;-87
2022/03/07 01:05:50;;;;;;;;;;;5.20;99.90;;;;;;4896556;29;19948;-89
2022/03/07 01:16:22;;;;;;;;;;;6.70;99.90;;;;;;4870982;29;19927;-88
2022/03/07 01:29:20;;;;;;;;;;;;;;;;;;;;;
2022/03/07 01:33:37;;;;;;;;;;;4.30;99.90;;;;;;4777537;30;19941;-87
2022/03/07 01:48:01;;;;;;;;;;;5.90;99.90;;;;;;4806680;29;19936;-87
2022/03/07 01:51:59;;;;;;;;;;;;;;;;;;;;;
2022/03/07 01:59:15;;;;;;;;;;;5.10;99.90;;;;;;4858889;29;20078;-87
2022/03/07 02:02:40;;;;;;;;;;;5.70;99.90;;;;;;4850307;29;19932;-87
2022/03/07 02:06:25;;;;;;;;;;;5.20;99.90;;;;;;4831221;29;19944;-86
2022/03/07 02:14:13;;;;;;;;;;;;;;;;;;;;;
2022/03/07 02:29:32;;;;;;;;;;;5.10;99.90;;;;;;5040737;23;19913;-94
2022/03/07 02:32:09;;;;;;;;;;;5.00;99.90;;;;;;4999373;28;19926;-93
2022/03/07 02:34:49;;;;;;;;;;;5.00;99.90;;;;;;4986361;28;19926;-94
2022/03/07 02:37:25;;;;;;;;;;;5.00;99.90;;;;;;5015676;28;19914;-95
2022/03/07 02:39:57;;;;;;;;;;;4.90;99.90;;;;;;5014473;28;19935;-93
2022/03/07 02:42:52;;;;;;;;;;;4.90;99.90;;;;;;5040833;28;19913;-94
2022/03/07 02:45:23;;;;;;;;;;;5.20;99.90;;;;;;5027508;28;19925;-94
2022/03/07 02:47:52;;;;;;;;;;;4.80;99.90;;;;;;5026214;28;19933;-94
2022/03/07 02:50:22;;;;;;;;;;;4.80;99.90;;;;;;5005433;28;19925;-94
2022/03/07 02:52:52;;;;;;;;;;;4.90;99.90;;;;;;5035876;28;19926;-94
2022/03/07 02:55:25;;;;;;;;;;;4.90;99.90;;;;;;5051808;28;19965;-94
2022/03/07 02:57:55;;;;;;;;;;;4.90;99.90;;;;;;5005201;28;19929;-95
2022/03/07 03:00:26;;;;;;;;;;;4.90;99.90;;;;;;5005519;28;19929;-94
2022/03/07 03:02:54;;;;;;;;;;;4.90;99.90;;;;;;5017194;28;19925;-93
2022/03/07 03:05:27;;;;;;;;;;;5.00;99.90;;;;;;5015582;28;19932;-95
2022/03/07 03:08:00;;;;;;;;;;;5.00;99.90;;;;;;5015942;28;19931;-94
2022/03/07 03:10:28;;;;;;;;;;;5.00;99.90;;;;;;5016261;28;19925;-94
2022/03/07 03:13:00;;;;;;;;;;;5.00;99.90;;;;;;5014618;28;19925;-94
2022/03/07 03:15:28;;;;;;;;;;;5.10;99.90;;;;;;4996636;28;19925;-93
2022/03/07 03:17:58;;;;;;;;;;;5.00;99.90;;;;;;4995997;28;20625;-94
2022/03/07 03:20:27;;;;;;;;;;;4.90;99.90;;;;;;5013265;28;19933;-95
2022/03/07 03:22:59;;;;;;;;;;;5.00;99.90;;;;;;4998979;28;19921;-95
2022/03/07 03:25:29;;;;;;;;;;;5.70;99.90;;;;;;5030630;28;19936;-96
2022/03/07 03:28:00;;;;;;;;;;;4.90;99.90;;;;;;5011763;28;19932;-94
2022/03/07 03:30:28;;;;;;;;;;;4.90;99.90;;;;;;5007720;28;19925;-94
2022/03/07 03:32:56;;;;;;;;;;;4.80;99.90;;;;;;5031574;28;19926;-94
2022/03/07 03:35:27;;;;;;;;;;;4.80;99.90;;;;;;5014388;28;20389;-93
2022/03/07 03:37:59;;;;;;;;;;;4.80;99.90;;;;;;5016188;28;20400;-95
2022/03/07 03:40:27;;;;;;;;;;;5.90;99.90;;;;;;5012940;28;19929;-95
2022/03/07 03:43:00;;;;;;;;;;;4.80;99.90;;;;;;5012604;28;19929;-96
2022/03/07 03:45:30;;;;;;;;;;;4.80;99.90;;;;;;4994834;28;20255;-93
2022/03/07 03:48:01;;;;;;;;;;;4.70;99.90;;;;;;5011043;28;19926;-96
2022/03/07 03:50:37;;;;;;;;;;;4.80;99.90;;;;;;5011304;28;19925;-94
2022/03/07 03:53:06;;;;;;;;;;;5.40;99.90;;;;;;5010759;28;20395;-94
2022/03/07 03:55:41;;;;;;;;;;;4.60;99.90;;;;;;5010063;28;19929;-94
2022/03/07 03:58:16;;;;;;;;;;;4.60;99.90;;;;;;5002770;28;19926;-94
2022/03/07 04:00:46;;;;;;;;;;;4.60;99.90;;;;;;5011203;28;19921;-94
2022/03/07 04:03:27;;;;;;;;;;;4.70;99.90;;;;;;5011381;28;19925;-94
2022/03/07 04:05:58;;;;;;;;;;;4.40;99.90;;;;;;5011161;28;20594;-94
2022/03/07 04:08:28;;;;;;;;;;;5.60;99.90;;;;;;5011525;28;20120;-94
2022/03/07 04:10:58;;;;;;;;;;;4.70;99.90;;;;;;5012081;28;20395;-94
2022/03/07 04:13:28;;;;;;;;;;;4.70;99.90;;;;;;5011303;28;19925;-94
2022/03/07 04:15:57;;;;;;;;;;;4.70;99.90;;;;;;5011541;28;19929;-95
2022/03/07 04:18:28;;;;;;;;;;;4.80;99.90;;;;;;4997065;28;19925;-94
2022/03/07 04:21:02;;;;;;;;;;;4.80;99.90;;;;;;5014010;28;20548;-95
2022/03/07 04:23:33;;;;;;;;;;;4.10;99.90;;;;;;5012782;28;19929;-94
2022/03/07 04:26:04;;;;;;;;;;;4.80;99.90;;;;;;5010840;28;19925;-95
2022/03/07 04:28:33;;;;;;;;;;;4.80;99.90;;;;;;5009103;28;19939;-95
2022/03/07 04:31:03;;;;;;;;;;;4.80;99.90;;;;;;4990799;28;19933;-95
2022/03/07 04:33:33;;;;;;;;;;;4.90;99.90;;;;;;4987742;28;19933;-94
2022/03/07 04:36:03;;;;;;;;;;;4.80;99.90;;;;;;4990290;28;19929;-93
2022/03/07 04:38:37;;;;;;;;;;;4.00;99.90;;;;;;4989226;28;19932;-94
2022/03/07 04:41:06;;;;;;;;;;;4.80;99.90;;;;;;4972738;28;19932;-94
2022/03/07 04:43:35;;;;;;;;;;;4.80;99.90;;;;;;5015689;28;19936;-95
2022/03/07 04:46:07;;;;;;;;;;;4.80;99.90;;;;;;5006621;28;19926;-94
2022/03/07 04:48:42;;;;;;;;;;;6.40;99.90;;;;;;5006415;28;19964;-94
2022/03/07 04:51:14;;;;;;;;;;;4.80;99.90;;;;;;5003858;28;19925;-94
2022/03/07 04:53:51;;;;;;;;;;;4.70;99.90;;;;;;5005929;28;20284;-92
2022/03/07 04:56:22;;;;;;;;;;;4.80;99.90;;;;;;5025896;28;19937;-94
2022/03/07 04:58:50;;;;;;;;;;;4.70;99.90;;;;;;4987638;28;19925;-92
2022/03/07 05:01:17;;;;;;;;;;;4.70;99.90;;;;;;5004606;28;19933;-94
2022/03/07 05:03:46;;;;;;;;;;;4.70;99.90;;;;;;5003289;28;19933;-95
2022/03/07 05:06:17;;;;;;;;;;;4.70;99.90;;;;;;5003628;28;20495;-93
2022/03/07 05:08:46;;;;;;;;;;;4.80;99.90;;;;;;5012046;28;19930;-93
2022/03/07 05:11:16;;;;;;;;;;;4.70;99.90;;;;;;4996003;28;19936;-94
2022/03/07 05:13:47;;;;;;;;;;;4.70;99.90;;;;;;5027162;28;20264;-93
2022/03/07 05:16:17;;;;;;;;;;;4.70;99.90;;;;;;5030087;28;19932;-94
2022/03/07 05:18:49;;;;;;;;;;;4.90;99.90;;;;;;5011924;28;19929;-94
2022/03/07 05:21:19;;;;;;;;;;;4.80;99.90;;;;;;5014971;28;19921;-95
2022/03/07 05:23:51;;;;;;;;;;;5.00;99.90;;;;;;5017828;28;19925;-93
2022/03/07 05:26:22;;;;;;;;;;;4.80;99.90;;;;;;5002012;28;19940;-94
2022/03/07 05:28:56;;;;;;;;;;;4.80;99.90;;;;;;4999403;28;19926;-94
2022/03/07 05:31:28;;;;;;;;;;;4.90;99.90;;;;;;5007747;28;19929;-92
2022/03/07 05:33:56;;;;;;;;;;;4.80;99.90;;;;;;4989558;28;20325;-94
2022/03/07 05:36:39;;;;;;;;;;;4.80;99.90;;;;;;4988486;28;19945;-93
2022/03/07 05:39:10;;;;;;;;;;;4.90;99.90;;;;;;5006310;28;19936;-95
2022/03/07 05:41:48;;;;;;;;;;;4.90;99.90;;;;;;5006651;28;19926;-94
2022/03/07 05:44:22;;;;;;;;;;;4.80;99.90;;;;;;4990278;28;19933;-94
2022/03/07 05:46:59;;;;;;;;;;;4.90;99.90;;;;;;4989449;28;19933;-94
2022/03/07 05:49:36;;;;;;;;;;;5.00;99.90;;;;;;5018576;28;19930;-93
2022/03/07 05:52:11;;;;;;;;;;;4.90;99.90;;;;;;5001749;28;20289;-94
2022/03/07 05:54:50;;;;;;;;;;;4.90;99.90;;;;;;4995747;28;19929;-94
2022/03/07 05:57:21;;;;;;;;;;;5.00;99.90;;;;;;4991928;28;19937;-94
2022/03/07 06:00:23;;;;;;;;;;;4.80;99.90;;;;;;5021080;28;19932;-94
2022/03/07 06:03:09;;;;;;;;;;;5.10;99.90;;;;;;4994404;28;20304;-92
2022/03/07 06:05:44;;;;;;;;;;;5.10;99.90;;;;;;5006924;28;19932;-93
2022/03/07 06:08:19;;;;;;;;;;;4.00;99.90;;;;;;4994698;28;19937;-93
2022/03/07 06:10:52;;;;;;;;;;;4.80;99.90;;;;;;5027254;28;19933;-93
2022/03/07 06:13:24;;;;;;;;;;;4.80;99.90;;;;;;5015314;28;19925;-93
2022/03/07 06:16:00;;;;;;;;;;;4.90;99.90;;;;;;5047849;28;19926;-95
2022/03/07 06:18:49;;;;;;;;;;;4.80;99.90;;;;;;5037143;28;19931;-94
2022/03/07 06:24:33;;;;;;;;;;;4.80;99.90;;;;;;5018664;28;19936;-95
2022/03/07 06:27:24;;;;;;;;;;;4.90;99.90;;;;;;5035904;28;19929;-94
2022/03/07 06:30:00;;;;;;;;;;;4.80;99.90;;;;;;4986817;28;19925;-93
2022/03/07 06:32:34;;;;;;;;;;;4.90;99.90;;;;;;5015561;28;19929;-94
2022/03/07 06:35:05;;;;;;;;;;;5.70;99.90;;;;;;5030635;28;19931;-91
2022/03/07 06:37:52;;;;;;;;;;;4.90;99.90;;;;;;5030688;28;19925;-93
2022/03/07 06:40:21;;;;;;;;;;;4.80;99.90;;;;;;5031090;28;19925;-93
2022/03/07 06:43:04;;;;;;;;;;;4.90;99.90;;;;;;5033194;28;19915;-92
2022/03/07 06:45:32;;;;;;;;;;;4.90;99.90;;;;;;5056430;28;19923;-95
2022/03/07 06:48:04;;;;;;;;;;;4.50;99.90;;;;;;5023469;28;19931;-91
2022/03/07 06:50:34;;;;;;;;;;;5.00;99.90;;;;;;5004350;28;19920;-92
2022/03/07 06:53:03;;;;;;;;;;;5.00;99.90;;;;;;5037221;28;19913;-93
2022/03/07 06:55:34;;;;;;;;;;;5.00;99.90;;;;;;5003991;28;19940;-94
2022/03/07 06:58:35;;;;;;;;;;;5.00;99.90;;;;;;5007198;28;19925;-93
2022/03/07 07:01:06;;;;;;;;;;;5.00;99.90;;;;;;5013591;28;19932;-92
2022/03/07 07:03:36;;;;;;;;;;;5.20;99.90;;;;;;5032239;28;19916;-95
2022/03/07 07:06:17;;;;;;;;;;;5.10;99.90;;;;;;5032878;28;19925;-93
2022/03/07 07:08:58;;;;;;;;;;;5.20;99.90;;;;;;4994757;28;19937;-92
2022/03/07 07:11:26;;;;;;;;;;;5.10;99.90;;;;;;5010580;28;19929;-93
2022/03/07 07:13:54;;;;;;;;;;;5.10;99.90;;;;;;4995970;28;20003;-92
2022/03/07 07:16:22;;;;;;;;;;;5.10;99.90;;;;;;5012336;28;19945;-94
2022/03/07 07:22:18;;;;;;;;;;;5.20;99.90;;;;;;5027535;23;19925;-93
2022/03/07 07:25:00;;;;;;;;;;;5.10;99.90;;;;;;4998997;28;19935;-90
2022/03/07 07:28:09;;;;;;;;;;;5.10;99.90;;;;;;5014477;28;19929;-93
2022/03/07 07:31:06;;;;;;;;;;;5.20;99.90;;;;;;5011587;28;20143;-94
2022/03/07 07:33:53;;;;;;;;;;;5.20;99.90;;;;;;5063498;28;20050;-94
2022/03/07 07:36:38;;;;;;;;;;;5.20;99.90;;;;;;5072111;28;19931;-94
2022/03/07 07:39:17;;;;;;;;;;;5.20;99.90;;;;;;5023804;28;19909;-89
2022/03/07 07:50:31;;;;;;;;;;;5.30;99.90;;;;;;4946107;29;19931;-84
2022/03/07 07:53:28;;;;;;;;;;;;;;;;;;;;;
2022/03/07 07:56:31;;;;;;;;;;;5.30;99.90;;;;;;4945756;29;19926;-84
2022/03/07 07:59:02;;;;;;;;;;;5.50;99.90;;;;;;4949660;29;19927;-83
2022/03/07 08:01:30;;;;;;;;;;;5.40;99.90;;;;;;4950579;29;19926;-83
2022/03/07 08:03:59;;;;;;;;;;;5.30;99.90;;;;;;4949264;29;19927;-83
2022/03/07 08:06:28;;;;;;;;;;;5.40;99.90;;;;;;4950217;29;19930;-82
2022/03/07 08:08:56;;;;;;;;;;;5.40;99.90;;;;;;4931862;29;20136;-83
2022/03/07 08:11:24;;;;;;;;;;;6.50;99.90;;;;;;4950452;29;19927;-85
2022/03/07 08:13:54;;;;;;;;;;;5.30;99.90;;;;;;4946592;29;20027;-82
2022/03/07 08:16:25;;;;;;;;;;;5.50;99.90;;;;;;4947913;29;19927;-84
2022/03/07 08:19:00;;;;;;;;;;;5.50;99.90;;;;;;4930797;29;19937;-83
2022/03/07 08:21:31;;;;;;;;;;;5.70;99.90;;;;;;4944994;29;20396;-82
2022/03/07 08:24:02;;;;;;;;;;;5.90;99.90;;;;;;4947043;29;19927;-84
2022/03/07 08:26:32;;;;;;;;;;;5.60;99.90;;;;;;4931379;29;19934;-83
2022/03/07 08:29:01;;;;;;;;;;;5.60;99.90;;;;;;4931582;29;19947;-82
2022/03/07 08:31:29;;;;;;;;;;;5.70;99.90;;;;;;4948300;29;19941;-83
2022/03/07 08:34:00;;;;;;;;;;;4.60;99.90;;;;;;4947346;29;19927;-83
2022/03/07 08:36:30;;;;;;;;;;;6.00;99.90;;;;;;4946137;29;19931;-83
2022/03/07 08:39:06;;;;;;;;;;;5.90;99.90;;;;;;4946967;29;20407;-85
2022/03/07 08:42:09;;;;;;;;;;;5.80;99.90;;;;;;4947724;29;19942;-83
2022/03/07 08:44:37;;;;;;;;;;;4.20;99.90;;;;;;4947417;29;19927;-81
2022/03/07 08:47:06;;;;;;;;;;;5.90;99.90;;;;;;4947736;29;19933;-82
2022/03/07 08:49:34;;;;;;;;;;;6.00;99.90;;;;;;4930915;29;19937;-82
2022/03/07 08:52:04;;;;;;;;;;;6.00;99.90;;;;;;4949156;29;19930;-83
2022/03/07 08:54:49;;;;;;;;;;;6.20;99.90;;;;;;4930866;29;19938;-84
2022/03/07 08:57:17;;;;;;;;;;;4.70;99.90;;;;;;4946766;29;20003;-85
2022/03/07 08:59:48;;;;;;;;;;;6.00;99.90;;;;;;4944977;29;19927;-82
2022/03/07 09:02:16;;;;;;;;;;;6.20;99.90;;;;;;4927475;29;19937;-82
2022/03/07 09:04:44;;;;;;;;;;;5.50;99.90;;;;;;4941787;29;19935;-80
2022/03/07 09:07:13;;;;;;;;;;;6.40;99.90;;;;;;4943697;29;19931;-82
2022/03/07 09:09:41;;;;;;;;;;;6.40;99.90;;;;;;4930935;29;20268;-81
2022/03/07 09:12:16;;;;;;;;;;;6.70;99.90;;;;;;4959188;29;19933;-83
2022/03/07 09:14:44;;;;;;;;;;;6.50;99.90;;;;;;4966309;29;19927;-82
2022/03/07 09:17:15;;;;;;;;;;;7.40;99.90;;;;;;4914406;29;20501;-81
2022/03/07 09:19:44;;;;;;;;;;;6.50;99.90;;;;;;4954612;29;20462;-82
2022/03/07 09:22:12;;;;;;;;;;;6.60;99.90;;;;;;4944558;29;19939;-80
2022/03/07 09:24:44;;;;;;;;;;;7.80;99.90;;;;;;4941854;29;19931;-84
2022/03/07 09:27:44;;;;;;;;;;;7.10;99.90;;;;;;4934149;29;19941;-84
2022/03/07 09:30:15;;;;;;;;;;;8.40;99.90;;;;;;4948056;29;19933;-83
2022/03/07 09:32:52;;;;;;;;;;;6.40;99.90;;;;;;4947586;29;19931;-83
2022/03/07 09:35:20;;;;;;;;;;;7.90;99.90;;;;;;4946120;29;19934;-84
2022/03/07 09:37:56;;;;;;;;;;;6.90;99.90;;;;;;4963023;29;19931;-83
2022/03/07 09:40:29;;;;;;;;;;;6.60;99.90;;;;;;4946841;29;19931;-84
2022/03/07 09:42:59;;;;;;;;;;;6.70;99.90;;;;;;4946495;29;20101;-85
2022/03/07 09:45:27;;;;;;;;;;;6.30;99.90;;;;;;4948160;29;19950;-84
2022/03/07 09:48:03;;;;;;;;;;;6.70;99.90;;;;;;4942513;29;19927;-84
2022/03/07 09:50:39;;;;;;;;;;;6.90;99.90;;;;;;4933166;29;19931;-84
2022/03/07 09:53:24;;;;;;;;;;;6.90;99.90;;;;;;4929642;29;19949;-84
2022/03/07 09:55:56;;;;;;;;;;;7.00;99.90;;;;;;4946714;29;19927;-83
2022/03/07 09:58:30;;;;;;;;;;;7.10;99.90;;;;;;4929225;29;19935;-81
2022/03/07 10:01:26;;;;;;;;;;;6.90;99.90;;;;;;4927211;29;19927;-82
2022/03/07 10:04:11;;;;;;;;;;;6.90;99.90;;;;;;4920869;29;19931;-84
2022/03/07 10:06:49;;;;;;;;;;;7.10;99.90;;;;;;4929017;29;19931;-83
2022/03/07 10:09:19;;;;;;;;;;;7.20;99.90;;;;;;4931127;29;19934;-83
2022/03/07 10:11:55;;;;;;;;;;;7.00;99.90;;;;;;4943371;29;19930;-83
2022/03/07 10:14:47;;;;;;;;;;;7.00;99.90;;;;;;4944249;29;19934;-83
2022/03/07 10:17:26;;;;;;;;;;;7.10;99.90;;;;;;4944406;29;19936;-83
2022/03/07 10:20:21;;;;;;;;;;;6.90;99.90;;;;;;4942940;29;19927;-81
2022/03/07 10:22:54;;;;;;;;;;;7.20;99.90;;;;;;4930246;29;19927;-81
2022/03/07 10:25:27;;;;;;;;;;;7.10;99.90;;;;;;4937362;29;20273;-82
2022/03/07 10:28:11;;;;;;;;;;;7.30;99.90;;;;;;4939517;29;19935;-83
2022/03/07 10:30:43;;;;;;;;;;;7.60;99.90;;;;;;4938660;29;19927;-84
2022/03/07 10:33:17;;;;;;;;;;;7.20;99.90;;;;;;4934956;29;19946;-82
2022/03/07 10:35:48;;;;;;;;;;;7.30;99.90;;;;;;4948091;29;20037;-81
2022/03/07 10:38:22;;;;;;;;;;;7.30;99.90;;;;;;4935861;29;20281;-83
2022/03/07 10:40:57;;;;;;;;;;;7.30;99.90;;;;;;4938079;29;19933;-82
2022/03/07 10:43:33;;;;;;;;;;;7.50;99.90;;;;;;4926646;29;19941;-83
2022/03/07 10:46:04;;;;;;;;;;;7.60;99.90;;;;;;4938792;29;20510;-83
2022/03/07 10:48:43;;;;;;;;;;;7.50;99.90;;;;;;4950568;28;19927;-83
2022/03/07 10:51:20;;;;;;;;;;;7.70;99.90;;;;;;4941197;29;19930;-83
2022/03/07 10:53:49;;;;;;;;;;;7.00;99.50;;;;;;4922414;29;19937;-83
2022/03/07 10:56:18;;;;;;;;;;;7.60;99.90;;;;;;4909422;29;19937;-83
2022/03/07 10:58:52;;;;;;;;;;;7.60;99.30;;;;;;4927172;29;19933;-82
2022/03/07 11:01:35;;;;;;;;;;;7.50;98.80;;;;;;4931111;29;19935;-83
2022/03/07 11:04:04;;;;;;;;;;;7.40;98.80;;;;;;4930232;29;19930;-82
2022/03/07 11:06:32;;;;;;;;;;;7.30;99.00;;;;;;4953113;29;19931;-82
2022/03/07 11:09:00;;;;;;;;;;;7.30;98.90;;;;;;4913485;29;19927;-82
2022/03/07 11:11:33;;;;;;;;;;;8.00;99.20;;;;;;4933043;29;19950;-82
2022/03/07 11:14:04;;;;;;;;;;;7.20;99.40;;;;;;4948085;29;19931;-82
2022/03/07 11:16:34;;;;;;;;;;;5.20;98.50;;;;;;4937386;29;19927;-84
2022/03/07 11:19:02;;;;;;;;;;;6.90;99.30;;;;;;4943449;29;19927;-82
2022/03/07 11:21:31;;;;;;;;;;;7.00;99.90;;;;;;4943700;29;19954;-82
2022/03/07 11:23:59;;;;;;;;;;;7.30;99.90;;;;;;4934993;29;19943;-82
2022/03/07 11:26:34;;;;;;;;;;;7.40;99.90;;;;;;4929005;29;19931;-82
2022/03/07 11:29:16;;;;;;;;;;;7.60;99.90;;;;;;4941716;29;20133;-82
2022/03/07 11:31:59;;;;;;;;;;;8.20;99.80;;;;;;4936228;29;19930;-82
2022/03/07 11:34:50;;;;;;;;;;;8.00;99.50;;;;;;4913341;29;19942;-82
2022/03/07 11:37:22;;;;;;;;;;;8.10;98.70;;;;;;4946825;29;19931;-82
2022/03/07 11:40:01;;;;;;;;;;;8.50;99.20;;;;;;4946614;29;19927;-82
2022/03/07 11:42:38;;;;;;;;;;;8.20;98.50;;;;;;4930352;29;19927;-81
2022/03/07 11:45:14;;;;;;;;;;;7.90;98.80;;;;;;4943898;29;19935;-82
2022/03/07 11:47:44;;;;;;;;;;;9.80;99.10;;;;;;4942964;29;19931;-82
2022/03/07 11:50:18;;;;;;;;;;;7.90;99.10;;;;;;4913951;29;19938;-81
2022/03/07 11:52:49;;;;;;;;;;;8.10;98.50;;;;;;4939660;29;19937;-82
2022/03/07 11:55:27;;;;;;;;;;;8.90;99.20;;;;;;4937189;29;19931;-84
2022/03/07 11:57:59;;;;;;;;;;;7.10;97.70;;;;;;4929581;29;20435;-82
2022/03/07 12:00:37;;;;;;;;;;;8.20;98.30;;;;;;4959414;29;19926;-86
2022/03/07 12:04:06;;;;;;;;;;;8.30;98.40;;;;;;4934647;29;19927;-85
2022/03/07 12:06:40;;;;;;;;;;;8.40;98.30;;;;;;4938651;29;19927;-86
2022/03/07 12:09:10;;;;;;;;;;;8.30;99.00;;;;;;4918768;29;19959;-85
2022/03/07 12:12:17;;;;;;;;;;;8.80;98.90;;;;;;4944760;29;19942;-85
2022/03/07 12:14:50;;;;;;;;;;;8.30;97.10;;;;;;4941264;29;19942;-84
2022/03/07 12:17:22;;;;;;;;;;;8.20;98.20;;;;;;4945330;29;19927;-83
2022/03/07 12:19:57;;;;;;;;;;;8.00;97.10;;;;;;4929419;29;20580;-83
2022/03/07 12:22:35;;;;;;;;;;;8.10;96.90;;;;;;4934497;29;19934;-83
2022/03/07 12:25:06;;;;;;;;;;;8.10;97.50;;;;;;4946720;29;19941;-83
2022/03/07 12:27:41;;;;;;;;;;;8.00;96.30;;;;;;4945346;29;20825;-84
2022/03/07 12:30:32;;;;;;;;;;;7.90;97.30;;;;;;4946006;29;19938;-83
2022/03/07 12:33:38;;;;;;;;;;;8.00;96.90;;;;;;4935291;29;19930;-83
2022/03/07 12:36:34;;;;;;;;;;;6.70;96.30;;;;;;4929799;29;19937;-83
2022/03/07 12:39:10;;;;;;;;;;;8.10;97.20;;;;;;4947008;29;19934;-85
2022/03/07 12:42:02;;;;;;;;;;;8.10;97.50;;;;;;4932333;29;19926;-85
2022/03/07 12:44:31;;;;;;;;;;;8.20;96.80;;;;;;4946002;29;19931;-84
2022/03/07 12:47:08;;;;;;;;;;;8.10;97.00;;;;;;4946905;29;19946;-83
2022/03/07 12:49:39;;;;;;;;;;;8.00;97.30;;;;;;4940695;29;19939;-83
2022/03/07 12:52:08;;;;;;;;;;;8.00;97.10;;;;;;4945403;29;19934;-85
2022/03/07 12:54:39;;;;;;;;;;;8.30;97.90;;;;;;4959143;29;19931;-84
2022/03/07 12:57:14;;;;;;;;;;;8.00;97.70;;;;;;4957256;29;19937;-86
2022/03/07 12:59:42;;;;;;;;;;;8.20;96.80;;;;;;4945283;29;20070;-85
2022/03/07 13:02:21;;;;;;;;;;;8.20;97.00;;;;;;4943093;29;19926;-84
2022/03/07 13:04:58;;;;;;;;;;;9.50;97.20;;;;;;4932092;29;19931;-83
2022/03/07 13:07:30;;;;;;;;;;;8.10;96.30;;;;;;4943180;29;19930;-85
2022/03/07 13:10:11;;;;;;;;;;;8.10;96.50;;;;;;4927195;29;19933;-84
2022/03/07 13:12:46;;;;;;;;;;;6.90;96.00;;;;;;4945379;29;19926;-83
2022/03/07 13:15:18;;;;;;;;;;;8.00;96.80;;;;;;4941104;29;19937;-85
2022/03/07 13:18:02;;;;;;;;;;;8.10;96.60;;;;;;4931434;29;19938;-84
2022/03/07 13:20:38;;;;;;;;;;;8.30;96.50;;;;;;4937261;29;19931;-85
2022/03/07 13:23:14;;;;;;;;;;;8.60;96.70;;;;;;4941217;29;19927;-85
2022/03/07 13:25:50;;;;;;;;;;;8.00;96.50;;;;;;4938266;29;19931;-84
2022/03/07 13:28:27;;;;;;;;;;;8.00;97.10;;;;;;4947191;29;19938;-85
2022/03/07 13:30:57;;;;;;;;;;;8.10;96.70;;;;;;4931977;29;19945;-86
2022/03/07 13:33:33;;;;;;;;;;;7.90;97.00;;;;;;4948224;29;19937;-85
2022/03/07 13:36:14;;;;;;;;;;;8.10;96.80;;;;;;4949922;29;19927;-86
2022/03/07 13:38:45;;;;;;;;;;;7.90;97.40;;;;;;4930324;29;19938;-85
2022/03/07 13:41:22;;;;;;;;;;;9.10;98.30;;;;;;4947946;29;19927;-84
2022/03/07 13:44:11;;;;;;;;;;;8.00;97.00;;;;;;4931770;29;19931;-87
2022/03/07 13:47:02;;;;;;;;;;;8.00;97.20;;;;;;4917777;29;19930;-85
2022/03/07 13:49:45;;;;;;;;;;;8.10;96.90;;;;;;4941988;29;20020;-82
2022/03/07 13:52:19;;;;;;;;;;;8.20;97.20;;;;;;4933196;29;19938;-83
2022/03/07 13:54:49;;;;;;;;;;;8.30;97.20;;;;;;4931714;29;20489;-82
2022/03/07 13:57:33;;;;;;;;;;;8.30;96.70;;;;;;4947569;29;19927;-82
2022/03/07 14:00:08;;;;;;;;;;;8.20;96.60;;;;;;4943096;29;20109;-82
2022/03/07 14:02:40;;;;;;;;;;;7.50;95.60;;;;;;4943995;29;19933;-85
2022/03/07 14:05:11;;;;;;;;;;;8.40;96.20;;;;;;4918906;29;19933;-84
2022/03/07 14:07:40;;;;;;;;;;;8.60;95.60;;;;;;4947140;29;19931;-83
2022/03/07 14:10:10;;;;;;;;;;;7.70;95.50;;;;;;4948754;29;20032;-85
2022/03/07 14:12:40;;;;;;;;;;;8.30;95.40;;;;;;4916537;29;19934;-83
2022/03/07 14:15:45;;;;;;;;;;;8.70;95.80;;;;;;4933860;29;19931;-83
2022/03/07 14:18:25;;;;;;;;;;;8.80;95.80;;;;;;4928645;29;19931;-84
2022/03/07 14:21:14;;;;;;;;;;;8.80;95.30;;;;;;4944324;29;19921;-83
2022/03/07 14:24:04;;;;;;;;;;;9.10;95.20;;;;;;4933195;29;20253;-83
2022/03/07 14:26:35;;;;;;;;;;;8.80;95.30;;;;;;4602978;29;9999606;-84
2022/03/07 14:29:08;;;;;;;;;;;8.60;95.30;;;;;;4923079;29;19937;-84
2022/03/07 14:31:37;;;;;;;;;;;8.60;94.80;;;;;;4946098;29;19927;-83
2022/03/07 14:34:07;;;;;;;;;;;8.70;95.50;;;;;;4931893;29;19931;-82
2022/03/07 14:36:41;;;;;;;;;;;7.50;95.20;;;;;;4950491;29;19930;-82
2022/03/07 14:39:12;;;;;;;;;;;8.50;95.40;;;;;;4935537;29;19931;-83
2022/03/07 14:41:44;;;;;;;;;;;8.40;96.00;;;;;;4934579;29;19926;-83
2022/03/07 14:44:35;;;;;;;;;;;8.30;95.80;;;;;;4952534;29;19927;-83
2022/03/07 14:47:15;;;;;;;;;;;8.80;95.20;;;;;;4940675;29;19931;-83
2022/03/07 14:49:45;;;;;;;;;;;8.40;95.30;;;;;;4934248;29;19927;-83
2022/03/07 14:52:19;;;;;;;;;;;8.50;95.60;;;;;;4950141;29;19927;-82
2022/03/07 14:54:49;;;;;;;;;;;8.60;95.20;;;;;;4949915;29;19933;-84
2022/03/07 14:57:41;;;;;;;;;;;8.70;94.50;;;;;;4934029;29;20158;-84
2022/03/07 15:00:12;;;;;;;;;;;8.80;94.80;;;;;;4933619;29;19934;-82
2022/03/07 15:02:40;;;;;;;;;;;8.80;94.50;;;;;;4951784;29;19926;-82
2022/03/07 15:05:08;;;;;;;;;;;9.20;95.30;;;;;;4945396;29;19937;-82
2022/03/07 15:07:39;;;;;;;;;;;8.80;95.20;;;;;;4956015;29;19926;-82
2022/03/07 15:10:07;;;;;;;;;;;9.10;95.00;;;;;;4952050;29;19937;-81
2022/03/07 15:12:36;;;;;;;;;;;9.40;94.80;;;;;;4942783;29;19910;-84
2022/03/07 15:15:13;;;;;;;;;;;9.60;94.00;;;;;;4950115;29;19931;-83
2022/03/07 15:17:46;;;;;;;;;;;9.80;93.80;;;;;;4949113;29;19934;-83
2022/03/07 15:20:14;;;;;;;;;;;9.80;94.00;;;;;;4932058;29;19931;-83
2022/03/07 15:22:46;;;;;;;;;;;10.10;93.40;;;;;;4948232;29;19938;-83
2022/03/07 15:25:16;;;;;;;;;;;10.30;93.30;;;;;;4935465;29;19927;-83
2022/03/07 15:27:53;;;;;;;;;;;10.70;93.30;;;;;;4947260;29;19934;-85
2022/03/07 15:30:35;;;;;;;;;;;11.00;91.80;;;;;;4949936;29;19926;-82
2022/03/07 15:33:04;;;;;;;;;;;10.50;91.70;;;;;;4924705;29;20269;-82
2022/03/07 15:35:32;;;;;;;;;;;10.80;92.00;;;;;;4935299;29;19926;-83
2022/03/07 15:38:01;;;;;;;;;;;10.50;92.10;;;;;;4945843;29;19931;-81
2022/03/07 15:40:29;;;;;;;;;;;10.40;91.50;;;;;;4948584;29;19938;-83
2022/03/07 15:43:08;;;;;;;;;;;10.10;91.60;;;;;;4916929;29;19934;-82
2022/03/07 15:45:45;;;;;;;;;;;9.50;92.60;;;;;;4942481;29;20171;-82
2022/03/07 15:48:15;;;;;;;;;;;9.00;93.10;;;;;;4943537;29;19930;-82
2022/03/07 15:50:43;;;;;;;;;;;8.70;94.50;;;;;;4930282;29;19931;-82
2022/03/07 15:53:13;;;;;;;;;;;8.20;94.70;;;;;;4943926;29;19927;-82
2022/03/07 15:55:44;;;;;;;;;;;8.20;94.80;;;;;;4945042;29;19927;-82
2022/03/07 15:58:20;;;;;;;;;;;7.60;95.80;;;;;;4961496;29;19935;-81
2022/03/07 16:01:00;;;;;;;;;;;7.90;96.20;;;;;;4943432;29;19934;-83
2022/03/07 16:03:39;;;;;;;;;;;7.60;95.60;;;;;;4953886;29;19926;-84
2022/03/07 16:06:16;;;;;;;;;;;7.80;96.30;;;;;;4933018;29;19931;-82
2022/03/07 16:08:44;;;;;;;;;;;7.80;95.70;;;;;;4945733;29;19937;-82
2022/03/07 16:11:14;;;;;;;;;;;8.10;96.80;;;;;;4941541;29;19932;-81
2022/03/07 16:13:42;;;;;;;;;;;7.50;96.00;;;;;;4935921;29;19938;-82
2022/03/07 16:16:11;;;;;;;;;;;7.30;96.40;;;;;;4941873;29;19934;-81
2022/03/07 16:18:38;;;;;;;;;;;7.20;96.80;;;;;;4943908;29;19927;-82
2022/03/07 16:21:10;;;;;;;;;;;7.10;96.80;;;;;;4913108;29;19941;-82
2022/03/07 16:23:40;;;;;;;;;;;7.20;96.60;;;;;;4943787;29;19941;-81
2022/03/07 16:26:11;;;;;;;;;;;7.20;96.80;;;;;;4939961;29;19935;-82
2022/03/07 16:28:41;;;;;;;;;;;7.30;97.10;;;;;;4907388;29;19927;-82
2022/03/07 16:31:10;;;;;;;;;;;6.80;98.10;;;;;;4945241;29;19935;-82
2022/03/07 16:33:38;;;;;;;;;;;7.00;97.40;;;;;;4934275;29;19922;-81
2022/03/07 16:36:07;;;;;;;;;;;6.60;98.00;;;;;;4942867;29;19941;-86
2022/03/07 16:38:41;;;;;;;;;;;6.50;97.50;;;;;;4944169;29;19933;-82
2022/03/07 16:41:18;;;;;;;;;;;6.50;98.10;;;;;;4938229;29;20068;-82
2022/03/07 16:43:47;;;;;;;;;;;6.40;98.10;;;;;;4944391;29;20367;-81
2022/03/07 16:46:15;;;;;;;;;;;6.40;98.10;;;;;;4956836;29;19926;-82
2022/03/07 16:48:55;;;;;;;;;;;6.30;98.70;;;;;;4942278;29;19946;-82
2022/03/07 16:51:29;;;;;;;;;;;5.70;98.70;;;;;;4943666;29;19935;-82
2022/03/07 16:54:00;;;;;;;;;;;5.60;98.70;;;;;;4943379;29;19935;-82
2022/03/07 16:56:32;;;;;;;;;;;6.10;98.60;;;;;;4943672;29;19927;-81
2022/03/07 16:59:35;;;;;;;;;;;6.00;98.70;;;;;;4955651;29;19935;-82
2022/03/07 17:02:10;;;;;;;;;;;6.10;99.20;;;;;;4922830;29;19933;-83
2022/03/07 17:04:52;;;;;;;;;;;6.00;99.40;;;;;;4923724;29;19933;-83
2022/03/07 17:07:21;;;;;;;;;;;6.50;99.00;;;;;;4944864;29;19931;-83
2022/03/07 17:09:52;;;;;;;;;;;6.00;99.60;;;;;;4946057;29;19933;-85
2022/03/07 17:12:34;;;;;;;;;;;5.90;99.00;;;;;;4948723;29;19927;-85
2022/03/07 17:15:06;;;;;;;;;;;6.10;99.10;;;;;;4949595;29;20692;-82
2022/03/07 17:17:38;;;;;;;;;;;5.90;98.90;;;;;;4945672;29;19915;-85
2022/03/07 17:20:12;;;;;;;;;;;6.60;99.30;;;;;;4929864;29;19938;-83
2022/03/07 17:22:52;;;;;;;;;;;5.80;99.10;;;;;;4946429;29;19927;-84
2022/03/07 17:25:22;;;;;;;;;;;4.50;99.30;;;;;;4950523;29;20541;-84
2022/03/07 17:27:53;;;;;;;;;;;5.10;99.30;;;;;;4950201;29;19940;-83